Time;durP1;ratioP1;P1;durP2;ratioP2;P2;SDS_P1;SDS_P2;PMS_P1;PMS_P2;Temp;Humidity;BMP_temperature;BMP_pressure;BME280_temperature;BME280_humidity;BME280_pressure;Samples;Min_cycle;Max_cycle;Signal;HPM_P1;HPM_P2
2022/02/14 00:01:03;;;;;;;;;;;11.00;74.10;;;;;;5039524;28;19925;-71
2022/02/14 00:03:30;;;;;;;;;;;11.10;74.10;;;;;;5031301;28;20004;-71
2022/02/14 00:05:59;;;;;;;;;;;11.10;74.20;;;;;;5028597;28;19956;-71
2022/02/14 00:08:26;;;;;;;;;;;11.10;73.80;;;;;;5031762;28;19925;-71
2022/02/14 00:10:52;;;;;;;;;;;11.10;74.00;;;;;;5027098;28;20304;-71
2022/02/14 00:13:19;;;;;;;;;;;11.10;73.70;;;;;;5031204;28;19925;-71
2022/02/14 00:15:48;;;;;;;;;;;11.10;73.90;;;;;;5027726;28;19925;-71
2022/02/14 00:18:14;;;;;;;;;;;11.10;73.90;;;;;;5032153;28;19925;-71
2022/02/14 00:20:41;;;;;;;;;;;11.00;74.00;;;;;;5029624;28;19933;-71
2022/02/14 00:23:09;;;;;;;;;;;11.00;74.00;;;;;;5031872;28;20010;-71
2022/02/14 00:25:35;;;;;;;;;;;11.00;74.30;;;;;;5030488;28;19925;-71
2022/02/14 00:28:02;;;;;;;;;;;10.90;74.40;;;;;;5029551;28;20012;-71
2022/02/14 00:30:30;;;;;;;;;;;11.00;74.30;;;;;;5029073;28;20025;-71
2022/02/14 00:32:57;;;;;;;;;;;11.00;74.30;;;;;;5034967;28;19925;-71
2022/02/14 00:35:24;;;;;;;;;;;11.00;74.20;;;;;;5034396;28;20649;-72
2022/02/14 00:37:53;;;;;;;;;;;11.00;74.00;;;;;;5030875;28;20343;-72
2022/02/14 00:40:21;;;;;;;;;;;11.00;74.10;;;;;;5024497;28;19971;-71
2022/02/14 00:42:48;;;;;;;;;;;10.90;74.90;;;;;;5030536;28;19925;-71
2022/02/14 00:45:16;;;;;;;;;;;11.00;74.30;;;;;;5033855;28;19931;-72
2022/02/14 00:47:45;;;;;;;;;;;11.00;74.00;;;;;;5028011;28;19925;-72
2022/02/14 00:50:12;;;;;;;;;;;11.10;73.80;;;;;;5021451;28;20026;-72
2022/02/14 00:52:40;;;;;;;;;;;11.10;73.50;;;;;;5030172;28;20360;-70
2022/02/14 00:55:08;;;;;;;;;;;11.10;73.80;;;;;;5041795;28;19925;-71
2022/02/14 00:57:36;;;;;;;;;;;11.10;74.00;;;;;;5033147;28;20016;-72
2022/02/14 01:00:04;;;;;;;;;;;11.10;74.10;;;;;;5030174;28;19932;-71
2022/02/14 01:02:30;;;;;;;;;;;11.00;74.20;;;;;;5031984;28;20456;-70
2022/02/14 01:04:57;;;;;;;;;;;11.00;74.20;;;;;;5030849;28;19932;-71
2022/02/14 01:07:24;;;;;;;;;;;11.10;73.70;;;;;;5029113;28;19932;-71
2022/02/14 01:09:51;;;;;;;;;;;11.10;73.50;;;;;;5033924;28;20392;-72
2022/02/14 01:12:17;;;;;;;;;;;11.10;73.40;;;;;;5032920;28;19925;-71
2022/02/14 01:14:45;;;;;;;;;;;11.20;73.40;;;;;;5027108;28;19925;-71
2022/02/14 01:17:12;;;;;;;;;;;11.10;73.40;;;;;;5027222;28;19929;-71
2022/02/14 01:19:39;;;;;;;;;;;11.10;73.80;;;;;;5028668;28;19937;-71
2022/02/14 01:22:05;;;;;;;;;;;11.10;74.00;;;;;;5032711;28;19925;-70
2022/02/14 01:24:32;;;;;;;;;;;11.10;74.10;;;;;;5029781;28;19925;-71
2022/02/14 01:26:59;;;;;;;;;;;11.00;74.30;;;;;;5038559;28;19972;-72
2022/02/14 01:29:25;;;;;;;;;;;11.00;74.70;;;;;;5028678;28;20011;-71
2022/02/14 01:31:53;;;;;;;;;;;11.00;74.70;;;;;;5033786;28;19925;-71
2022/02/14 01:34:20;;;;;;;;;;;11.00;75.00;;;;;;5029443;28;19951;-70
2022/02/14 01:36:47;;;;;;;;;;;11.00;75.10;;;;;;5027719;28;19936;-71
2022/02/14 01:39:13;;;;;;;;;;;10.90;75.20;;;;;;5029469;28;19925;-71
2022/02/14 01:41:40;;;;;;;;;;;10.90;74.90;;;;;;5023202;28;19932;-71
2022/02/14 01:44:10;;;;;;;;;;;11.00;74.70;;;;;;5027494;28;19931;-71
2022/02/14 01:46:36;;;;;;;;;;;11.00;74.70;;;;;;5028400;28;20376;-71
2022/02/14 01:49:05;;;;;;;;;;;11.00;74.40;;;;;;5029743;28;19925;-72
2022/02/14 01:51:32;;;;;;;;;;;11.00;74.10;;;;;;5027852;28;20347;-72
2022/02/14 01:53:59;;;;;;;;;;;11.00;74.00;;;;;;5029887;28;20277;-72
2022/02/14 01:56:25;;;;;;;;;;;11.00;74.10;;;;;;5025815;28;19925;-71
2022/02/14 01:58:52;;;;;;;;;;;10.90;74.40;;;;;;5028479;28;19925;-72
2022/02/14 02:01:19;;;;;;;;;;;10.90;74.70;;;;;;5025224;28;19956;-72
2022/02/14 02:03:45;;;;;;;;;;;11.00;74.00;;;;;;5029318;28;20451;-72
2022/02/14 02:06:13;;;;;;;;;;;11.00;73.70;;;;;;5028621;28;19925;-72
2022/02/14 02:08:40;;;;;;;;;;;11.00;73.70;;;;;;5028257;28;19932;-72
2022/02/14 02:13:53;;;;;;;;;;;11.10;73.80;;;;;;5029580;28;20403;-72
2022/02/14 02:16:19;;;;;;;;;;;11.00;73.90;;;;;;5029604;28;20376;-71
2022/02/14 02:18:46;;;;;;;;;;;11.10;73.30;;;;;;5029057;28;19933;-72
2022/02/14 02:21:14;;;;;;;;;;;11.10;73.50;;;;;;5035684;28;19955;-71
2022/02/14 02:23:42;;;;;;;;;;;11.10;73.70;;;;;;5026610;28;19932;-71
2022/02/14 02:26:10;;;;;;;;;;;11.10;73.50;;;;;;5031862;28;19932;-71
2022/02/14 02:28:37;;;;;;;;;;;11.10;73.70;;;;;;5027440;28;19972;-71
2022/02/14 02:31:04;;;;;;;;;;;11.00;74.00;;;;;;5038074;28;20012;-72
2022/02/14 02:33:31;;;;;;;;;;;11.00;74.20;;;;;;5029092;28;19925;-72
2022/02/14 02:35:58;;;;;;;;;;;11.00;74.20;;;;;;5030541;28;19931;-72
2022/02/14 02:38:25;;;;;;;;;;;11.00;74.70;;;;;;5028827;28;19932;-73
2022/02/14 02:40:51;;;;;;;;;;;11.00;74.30;;;;;;5038326;28;19925;-72
2022/02/14 02:43:19;;;;;;;;;;;11.00;74.40;;;;;;5031407;28;19964;-72
2022/02/14 02:45:46;;;;;;;;;;;11.00;74.60;;;;;;5034858;28;20024;-72
2022/02/14 02:48:13;;;;;;;;;;;11.00;74.30;;;;;;5032033;28;20376;-72
2022/02/14 02:51:01;;;;;;;;;;;11.00;74.10;;;;;;5031588;28;20019;-72
2022/02/14 02:53:27;;;;;;;;;;;11.00;74.00;;;;;;5021987;28;20340;-71
2022/02/14 02:55:53;;;;;;;;;;;11.00;74.50;;;;;;5038929;28;19935;-71
2022/02/14 02:58:22;;;;;;;;;;;11.00;74.50;;;;;;5037113;28;20008;-72
2022/02/14 03:00:48;;;;;;;;;;;11.00;74.30;;;;;;5040591;28;20458;-71
2022/02/14 03:03:15;;;;;;;;;;;11.00;75.00;;;;;;5032579;28;20004;-72
2022/02/14 03:05:42;;;;;;;;;;;11.00;74.60;;;;;;5030069;28;20261;-71
2022/02/14 03:08:08;;;;;;;;;;;11.00;74.40;;;;;;5031493;28;19936;-72
2022/02/14 03:10:35;;;;;;;;;;;11.00;74.40;;;;;;5029326;28;19951;-72
2022/02/14 03:13:01;;;;;;;;;;;11.10;74.00;;;;;;5033888;28;19952;-72
2022/02/14 03:15:29;;;;;;;;;;;11.00;74.00;;;;;;5030213;28;20016;-74
2022/02/14 03:17:58;;;;;;;;;;;11.10;74.20;;;;;;5031066;28;19925;-71
2022/02/14 03:20:25;;;;;;;;;;;11.00;74.40;;;;;;5028532;28;19972;-71
2022/02/14 03:22:51;;;;;;;;;;;11.00;74.70;;;;;;5033576;28;19932;-71
2022/02/14 03:25:18;;;;;;;;;;;10.90;75.10;;;;;;5030468;28;19931;-71
2022/02/14 03:27:45;;;;;;;;;;;10.90;75.30;;;;;;5032263;28;19933;-71
2022/02/14 03:30:11;;;;;;;;;;;10.90;75.40;;;;;;5034711;28;19978;-74
2022/02/14 03:32:39;;;;;;;;;;;11.00;75.40;;;;;;5026904;28;19931;-72
2022/02/14 03:35:07;;;;;;;;;;;11.00;75.60;;;;;;5029056;28;19933;-71
2022/02/14 03:37:34;;;;;;;;;;;10.90;75.90;;;;;;5032094;28;19929;-71
2022/02/14 03:40:00;;;;;;;;;;;11.00;75.80;;;;;;5029888;28;20020;-72
2022/02/14 03:42:27;;;;;;;;;;;11.00;75.80;;;;;;5032928;28;19951;-71
2022/02/14 03:44:53;;;;;;;;;;;11.10;76.10;;;;;;5029648;28;20024;-72
2022/02/14 03:47:20;;;;;;;;;;;11.10;76.20;;;;;;5031855;28;19925;-73
2022/02/14 03:49:48;;;;;;;;;;;11.10;76.40;;;;;;5032664;28;20348;-71
2022/02/14 03:52:15;;;;;;;;;;;11.10;76.40;;;;;;5028777;28;19931;-72
2022/02/14 03:54:41;;;;;;;;;;;11.10;76.40;;;;;;5043996;28;20295;-72
2022/02/14 03:57:08;;;;;;;;;;;11.10;76.30;;;;;;5029345;28;19925;-71
2022/02/14 03:59:35;;;;;;;;;;;11.10;76.80;;;;;;5033267;28;20016;-71
2022/02/14 04:02:02;;;;;;;;;;;11.10;77.30;;;;;;5026503;28;20311;-72
2022/02/14 04:04:29;;;;;;;;;;;11.10;77.50;;;;;;5032428;28;19931;-71
2022/02/14 04:06:57;;;;;;;;;;;11.00;77.60;;;;;;5030176;28;19979;-71
2022/02/14 04:09:23;;;;;;;;;;;11.00;77.90;;;;;;5031284;28;19929;-71
2022/02/14 04:11:50;;;;;;;;;;;11.00;78.00;;;;;;5029803;28;19937;-71
2022/02/14 04:14:17;;;;;;;;;;;11.10;78.00;;;;;;5031374;28;19933;-71
2022/02/14 04:16:43;;;;;;;;;;;11.00;78.30;;;;;;5029469;28;20288;-71
2022/02/14 04:19:10;;;;;;;;;;;11.00;78.30;;;;;;5031903;28;20388;-71
2022/02/14 04:21:36;;;;;;;;;;;11.00;78.50;;;;;;5030502;28;19931;-71
2022/02/14 04:24:05;;;;;;;;;;;11.00;78.50;;;;;;5026712;28;19947;-71
2022/02/14 04:26:31;;;;;;;;;;;11.00;78.80;;;;;;5029730;28;19925;-71
2022/02/14 04:28:58;;;;;;;;;;;11.00;79.00;;;;;;5031397;28;19940;-71
2022/02/14 04:31:25;;;;;;;;;;;11.00;79.30;;;;;;5039395;28;19947;-72
2022/02/14 04:33:51;;;;;;;;;;;10.90;79.70;;;;;;5022573;28;20460;-72
2022/02/14 04:36:18;;;;;;;;;;;10.90;80.10;;;;;;5031398;28;20036;-72
2022/02/14 04:38:45;;;;;;;;;;;10.90;80.30;;;;;;5028497;28;19925;-71
2022/02/14 04:41:13;;;;;;;;;;;10.80;80.30;;;;;;5030339;28;19931;-71
2022/02/14 04:43:39;;;;;;;;;;;10.70;80.50;;;;;;5021119;28;19926;-72
2022/02/14 04:46:06;;;;;;;;;;;10.80;80.80;;;;;;5029607;28;19925;-71
2022/02/14 04:48:33;;;;;;;;;;;10.70;81.00;;;;;;5027327;28;19960;-72
2022/02/14 04:51:00;;;;;;;;;;;10.70;81.20;;;;;;5034616;28;20000;-71
2022/02/14 04:53:27;;;;;;;;;;;10.70;81.30;;;;;;5027763;28;19925;-71
2022/02/14 04:55:53;;;;;;;;;;;10.70;81.40;;;;;;5031083;28;19947;-71
2022/02/14 04:58:21;;;;;;;;;;;10.70;81.50;;;;;;5031169;28;19925;-71
2022/02/14 05:00:48;;;;;;;;;;;10.70;81.70;;;;;;5025917;28;19933;-71
2022/02/14 05:03:14;;;;;;;;;;;10.70;81.90;;;;;;5024967;28;19933;-71
2022/02/14 05:05:41;;;;;;;;;;;10.60;82.20;;;;;;5029000;28;20027;-71
2022/02/14 05:08:08;;;;;;;;;;;10.70;82.60;;;;;;5031594;28;19968;-71
2022/02/14 05:10:34;;;;;;;;;;;10.60;82.70;;;;;;5028620;28;19932;-72
2022/02/14 05:13:01;;;;;;;;;;;10.60;83.00;;;;;;5032035;28;19925;-71
2022/02/14 05:15:29;;;;;;;;;;;10.50;83.50;;;;;;5035967;28;19933;-71
2022/02/14 05:17:56;;;;;;;;;;;10.50;83.90;;;;;;5026240;28;19933;-72
2022/02/14 05:20:23;;;;;;;;;;;10.60;84.60;;;;;;5025697;28;20019;-71
2022/02/14 05:22:49;;;;;;;;;;;10.60;84.90;;;;;;5030543;28;20315;-74
2022/02/14 05:25:16;;;;;;;;;;;10.70;84.70;;;;;;5031541;28;19924;-71
2022/02/14 05:27:43;;;;;;;;;;;10.70;84.60;;;;;;5034637;28;20028;-71
2022/02/14 05:30:10;;;;;;;;;;;10.80;84.60;;;;;;5032573;28;19924;-71
2022/02/14 05:32:38;;;;;;;;;;;10.70;85.00;;;;;;5029662;28;19925;-72
2022/02/14 05:35:05;;;;;;;;;;;10.70;85.00;;;;;;5029612;28;20015;-73
2022/02/14 05:37:32;;;;;;;;;;;10.70;85.00;;;;;;5035932;28;19931;-71
2022/02/14 05:39:58;;;;;;;;;;;10.70;85.40;;;;;;5041812;28;19932;-71
2022/02/14 05:42:26;;;;;;;;;;;10.80;85.60;;;;;;5028093;28;20100;-72
2022/02/14 05:44:53;;;;;;;;;;;10.70;85.50;;;;;;5031905;28;19937;-71
2022/02/14 05:47:19;;;;;;;;;;;10.80;86.60;;;;;;5034752;28;19932;-73
2022/02/14 05:49:47;;;;;;;;;;;10.80;86.20;;;;;;5033912;28;19925;-72
2022/02/14 05:52:14;;;;;;;;;;;10.90;86.30;;;;;;5041360;28;19925;-72
2022/02/14 05:54:41;;;;;;;;;;;10.80;86.70;;;;;;5035027;28;20442;-73
2022/02/14 05:57:07;;;;;;;;;;;10.90;86.80;;;;;;5029922;28;20043;-72
2022/02/14 05:59:34;;;;;;;;;;;11.00;87.30;;;;;;5028597;28;19932;-72
2022/02/14 06:02:02;;;;;;;;;;;11.00;88.80;;;;;;5028541;28;20327;-71
2022/02/14 06:04:28;;;;;;;;;;;10.90;90.80;;;;;;5028464;28;19968;-71
2022/02/14 06:06:56;;;;;;;;;;;10.70;91.90;;;;;;5030967;28;19929;-71
2022/02/14 06:09:26;;;;;;;;;;;10.60;93.20;;;;;;5026048;28;19939;-71
2022/02/14 06:11:53;;;;;;;;;;;10.60;94.30;;;;;;5037897;28;19937;-72
2022/02/14 06:14:20;;;;;;;;;;;10.60;95.20;;;;;;5031369;28;19960;-71
2022/02/14 06:16:46;;;;;;;;;;;10.50;97.40;;;;;;5032339;28;19928;-71
2022/02/14 06:19:13;;;;;;;;;;;10.30;99.90;;;;;;5030705;28;19925;-71
2022/02/14 06:21:40;;;;;;;;;;;10.20;99.90;;;;;;5035735;28;19932;-71
2022/02/14 06:24:08;;;;;;;;;;;10.00;99.90;;;;;;5042753;28;20017;-71
2022/02/14 06:26:35;;;;;;;;;;;9.80;99.90;;;;;;5029222;28;20300;-71
2022/02/14 06:29:02;;;;;;;;;;;9.60;99.90;;;;;;5031555;28;19925;-71
2022/02/14 06:31:30;;;;;;;;;;;9.40;99.90;;;;;;5030130;28;19964;-71
2022/02/14 06:33:57;;;;;;;;;;;9.20;99.90;;;;;;5036341;28;20039;-71
2022/02/14 06:36:26;;;;;;;;;;;9.10;99.90;;;;;;5031015;28;19936;-71
2022/02/14 06:38:53;;;;;;;;;;;9.00;99.90;;;;;;5035781;28;19925;-73
2022/02/14 06:41:22;;;;;;;;;;;9.00;99.90;;;;;;5031794;28;20001;-71
2022/02/14 06:43:48;;;;;;;;;;;9.00;99.90;;;;;;5026342;28;21657;-71
2022/02/14 06:46:15;;;;;;;;;;;8.90;99.90;;;;;;5026628;28;20440;-71
2022/02/14 06:48:42;;;;;;;;;;;8.90;99.90;;;;;;5020127;28;21969;-71
2022/02/14 06:51:09;;;;;;;;;;;8.90;99.90;;;;;;5024465;28;19944;-71
2022/02/14 06:53:35;;;;;;;;;;;8.90;99.90;;;;;;5018289;28;19980;-71
2022/02/14 06:56:05;;;;;;;;;;;8.90;99.90;;;;;;5026239;28;19933;-71
2022/02/14 06:58:33;;;;;;;;;;;8.90;99.90;;;;;;5025875;28;20020;-71
2022/02/14 07:01:00;;;;;;;;;;;8.80;99.90;;;;;;5025758;28;19925;-70
2022/02/14 07:03:27;;;;;;;;;;;8.80;99.90;;;;;;5024277;28;20359;-71
2022/02/14 07:05:53;;;;;;;;;;;8.80;99.90;;;;;;5019908;28;19926;-71
2022/02/14 07:08:20;;;;;;;;;;;8.80;99.90;;;;;;5029283;28;19929;-72
2022/02/14 07:10:47;;;;;;;;;;;8.80;99.90;;;;;;5026868;28;19925;-72
2022/02/14 07:13:13;;;;;;;;;;;8.80;99.90;;;;;;5031745;28;19925;-71
2022/02/14 07:15:41;;;;;;;;;;;8.80;99.90;;;;;;5027695;28;19944;-73
2022/02/14 07:18:11;;;;;;;;;;;8.90;99.90;;;;;;5030554;28;19925;-72
2022/02/14 07:20:38;;;;;;;;;;;8.90;99.90;;;;;;5027281;28;20027;-71
2022/02/14 07:23:05;;;;;;;;;;;8.90;99.90;;;;;;5030754;28;19925;-71
2022/02/14 07:25:32;;;;;;;;;;;8.90;99.90;;;;;;5028523;28;19932;-71
2022/02/14 07:27:59;;;;;;;;;;;8.90;99.90;;;;;;5033271;28;20015;-70
2022/02/14 07:30:25;;;;;;;;;;;8.80;99.90;;;;;;5027974;28;19925;-72
2022/02/14 07:32:53;;;;;;;;;;;8.80;99.90;;;;;;5030291;28;20003;-69
2022/02/14 07:35:20;;;;;;;;;;;8.80;99.90;;;;;;5039029;28;19933;-70
2022/02/14 07:37:47;;;;;;;;;;;8.80;99.90;;;;;;5036201;28;19925;-70
2022/02/14 07:40:14;;;;;;;;;;;8.70;99.90;;;;;;5029317;28;20382;-70
2022/02/14 07:42:41;;;;;;;;;;;8.70;99.90;;;;;;5031173;28;19931;-70
2022/02/14 07:45:08;;;;;;;;;;;8.60;99.90;;;;;;5023186;28;20308;-69
2022/02/14 07:47:35;;;;;;;;;;;8.60;99.90;;;;;;5033113;28;19935;-69
2022/02/14 07:50:06;;;;;;;;;;;8.60;99.90;;;;;;5025203;28;19936;-70
2022/02/14 07:52:32;;;;;;;;;;;8.60;99.90;;;;;;5027246;28;19932;-70
2022/02/14 07:54:59;;;;;;;;;;;8.60;99.90;;;;;;5025977;28;20345;-70
2022/02/14 07:57:26;;;;;;;;;;;8.70;99.90;;;;;;5027850;28;19940;-72
2022/02/14 07:59:53;;;;;;;;;;;8.70;99.90;;;;;;5030785;28;19930;-72
2022/02/14 08:02:20;;;;;;;;;;;8.70;99.90;;;;;;5031595;28;19959;-70
2022/02/14 08:04:47;;;;;;;;;;;8.70;99.90;;;;;;5031813;28;19955;-70
2022/02/14 08:07:15;;;;;;;;;;;8.80;99.90;;;;;;5033917;28;19925;-70
2022/02/14 08:09:42;;;;;;;;;;;8.90;99.90;;;;;;5025203;28;19925;-69
2022/02/14 08:12:09;;;;;;;;;;;8.90;99.90;;;;;;5033186;28;19929;-70
2022/02/14 08:14:36;;;;;;;;;;;8.90;99.90;;;;;;5029515;28;20022;-70
2022/02/14 08:17:03;;;;;;;;;;;8.80;99.90;;;;;;5031351;28;19933;-70
2022/02/14 08:19:29;;;;;;;;;;;8.80;99.90;;;;;;5024868;28;20004;-70
2022/02/14 08:21:56;;;;;;;;;;;8.90;99.90;;;;;;5019540;28;19925;-70
2022/02/14 08:24:24;;;;;;;;;;;8.90;99.90;;;;;;5024524;28;20315;-70
2022/02/14 08:26:51;;;;;;;;;;;8.90;99.90;;;;;;5028487;28;19937;-70
2022/02/14 08:29:18;;;;;;;;;;;8.90;99.90;;;;;;5027898;28;19933;-69
2022/02/14 08:31:45;;;;;;;;;;;8.90;99.90;;;;;;5029118;28;19932;-69
2022/02/14 08:34:13;;;;;;;;;;;8.90;99.90;;;;;;5023934;28;19925;-70
2022/02/14 08:36:40;;;;;;;;;;;9.00;99.90;;;;;;5024247;28;20293;-70
2022/02/14 08:39:07;;;;;;;;;;;9.00;99.90;;;;;;5027004;28;19925;-70
2022/02/14 08:41:35;;;;;;;;;;;9.00;99.90;;;;;;5030248;28;19925;-72
2022/02/14 08:44:01;;;;;;;;;;;9.00;99.90;;;;;;5034969;28;19928;-70
2022/02/14 08:46:28;;;;;;;;;;;9.10;99.90;;;;;;5030216;28;19925;-70
2022/02/14 08:48:55;;;;;;;;;;;9.20;99.90;;;;;;5026931;28;19928;-69
2022/02/14 08:51:23;;;;;;;;;;;9.30;99.90;;;;;;5026401;28;19933;-69
2022/02/14 08:53:50;;;;;;;;;;;9.30;99.90;;;;;;5023957;28;19934;-69
2022/02/14 08:56:17;;;;;;;;;;;9.40;99.90;;;;;;5026877;28;19943;-69
2022/02/14 08:58:46;;;;;;;;;;;10.50;99.90;;;;;;5025135;28;19925;-69
2022/02/14 09:01:13;;;;;;;;;;;11.60;99.90;;;;;;5030066;28;19925;-70
2022/02/14 09:03:40;;;;;;;;;;;11.60;99.90;;;;;;5038267;28;19925;-70
2022/02/14 09:06:07;;;;;;;;;;;11.30;99.90;;;;;;5035564;28;20003;-69
2022/02/14 09:08:34;;;;;;;;;;;10.90;99.90;;;;;;5029162;28;19929;-70
2022/02/14 09:11:01;;;;;;;;;;;10.60;99.90;;;;;;5026023;28;19967;-70
2022/02/14 09:13:28;;;;;;;;;;;10.10;99.90;;;;;;5034779;28;20062;-70
2022/02/14 09:15:56;;;;;;;;;;;9.80;99.90;;;;;;5020380;28;19929;-70
2022/02/14 09:18:25;;;;;;;;;;;9.70;99.90;;;;;;5028332;28;20121;-70
2022/02/14 09:20:52;;;;;;;;;;;10.40;99.90;;;;;;5030286;28;20377;-70
2022/02/14 09:23:21;;;;;;;;;;;11.60;99.90;;;;;;5032027;28;20368;-70
2022/02/14 09:25:48;;;;;;;;;;;11.70;99.60;;;;;;5029388;28;19932;-70
2022/02/14 09:28:15;;;;;;;;;;;11.30;99.90;;;;;;5027741;28;19932;-70
2022/02/14 09:30:41;;;;;;;;;;;11.90;98.50;;;;;;5030466;28;19952;-70
2022/02/14 09:33:09;;;;;;;;;;;12.00;98.10;;;;;;5027919;28;19925;-70
2022/02/14 09:35:36;;;;;;;;;;;11.50;98.80;;;;;;5024211;28;19933;-74
2022/02/14 09:38:04;;;;;;;;;;;11.20;98.70;;;;;;5025550;28;20273;-70
2022/02/14 09:40:31;;;;;;;;;;;11.60;99.10;;;;;;5022455;28;19926;-70
2022/02/14 09:42:59;;;;;;;;;;;12.20;97.70;;;;;;5030367;28;20295;-70
2022/02/14 09:45:26;;;;;;;;;;;12.60;96.20;;;;;;5025888;28;19976;-71
2022/02/14 09:47:55;;;;;;;;;;;11.70;96.60;;;;;;5028020;28;19925;-72
2022/02/14 09:50:23;;;;;;;;;;;10.90;97.80;;;;;;5033204;28;19931;-71
2022/02/14 09:52:50;;;;;;;;;;;10.50;98.60;;;;;;5027131;28;19979;-71
2022/02/14 09:55:18;;;;;;;;;;;10.30;98.90;;;;;;5026430;28;20011;-71
2022/02/14 09:57:44;;;;;;;;;;;10.20;98.50;;;;;;5028649;28;19925;-70
2022/02/14 10:00:12;;;;;;;;;;;10.30;98.90;;;;;;5036220;28;19932;-70
2022/02/14 10:02:39;;;;;;;;;;;10.40;99.00;;;;;;5033899;28;19925;-71
2022/02/14 10:05:07;;;;;;;;;;;10.30;98.80;;;;;;5036339;28;19925;-71
2022/02/14 10:07:43;;;;;;;;;;;10.30;98.80;;;;;;5033242;28;20191;-73
2022/02/14 10:10:11;;;;;;;;;;;10.30;99.40;;;;;;5031172;28;19924;-71
2022/02/14 10:12:42;;;;;;;;;;;10.30;98.60;;;;;;5035082;28;20008;-71
2022/02/14 10:15:09;;;;;;;;;;;10.30;98.80;;;;;;5026299;28;20329;-71
2022/02/14 10:17:39;;;;;;;;;;;10.20;98.80;;;;;;5026403;28;20400;-71
2022/02/14 10:20:07;;;;;;;;;;;10.40;99.20;;;;;;5035391;28;20390;-71
2022/02/14 10:22:34;;;;;;;;;;;10.40;99.20;;;;;;5027802;28;19979;-71
2022/02/14 10:25:02;;;;;;;;;;;10.30;99.10;;;;;;5033242;28;19930;-70
2022/02/14 10:27:32;;;;;;;;;;;10.30;99.20;;;;;;5031218;28;19929;-72
2022/02/14 10:30:07;;;;;;;;;;;10.30;98.90;;;;;;5026938;28;20243;-71
2022/02/14 10:32:34;;;;;;;;;;;10.20;98.50;;;;;;5023319;28;19925;-73
2022/02/14 10:35:02;;;;;;;;;;;10.10;98.90;;;;;;5029566;28;20464;-71
2022/02/14 10:37:39;;;;;;;;;;;10.10;98.50;;;;;;5033316;28;20336;-73
2022/02/14 10:40:08;;;;;;;;;;;10.10;98.60;;;;;;5028263;28;19932;-71
2022/02/14 10:42:36;;;;;;;;;;;10.20;98.60;;;;;;5023917;28;19968;-71
2022/02/14 10:45:13;;;;;;;;;;;10.40;98.90;;;;;;5030253;28;19933;-72
2022/02/14 10:47:40;;;;;;;;;;;10.50;98.50;;;;;;5028765;28;19962;-72
2022/02/14 10:50:08;;;;;;;;;;;10.70;97.80;;;;;;5024784;28;20420;-70
2022/02/14 10:52:35;;;;;;;;;;;10.60;97.10;;;;;;5031806;28;20008;-71
2022/02/14 10:55:04;;;;;;;;;;;10.60;97.40;;;;;;5033222;28;19925;-71
2022/02/14 10:57:33;;;;;;;;;;;10.60;97.40;;;;;;5030391;28;19925;-72
2022/02/14 11:00:01;;;;;;;;;;;10.70;97.50;;;;;;5027056;28;20012;-71
2022/02/14 11:02:28;;;;;;;;;;;10.60;97.50;;;;;;5021369;28;19932;-71
2022/02/14 11:04:55;;;;;;;;;;;10.40;96.70;;;;;;5037137;28;19936;-71
2022/02/14 11:07:22;;;;;;;;;;;10.30;96.70;;;;;;5038536;28;19932;-71
2022/02/14 11:09:50;;;;;;;;;;;10.20;97.00;;;;;;5029162;28;19925;-73
2022/02/14 11:12:18;;;;;;;;;;;10.10;97.20;;;;;;5039717;28;20303;-71
2022/02/14 11:14:46;;;;;;;;;;;10.30;97.10;;;;;;5029157;28;19933;-72
2022/02/14 11:17:15;;;;;;;;;;;10.50;97.30;;;;;;5035199;28;19931;-72
2022/02/14 11:19:45;;;;;;;;;;;10.50;96.90;;;;;;5027542;28;20368;-71
2022/02/14 11:22:13;;;;;;;;;;;10.50;96.40;;;;;;5036212;28;19925;-71
2022/02/14 11:24:44;;;;;;;;;;;10.60;96.70;;;;;;5026125;28;20388;-71
2022/02/14 11:27:16;;;;;;;;;;;10.70;96.40;;;;;;5024975;28;19925;-70
2022/02/14 11:29:51;;;;;;;;;;;10.70;96.80;;;;;;5028607;28;20271;-70
2022/02/14 11:32:19;;;;;;;;;;;10.70;96.40;;;;;;5026897;28;19998;-71
2022/02/14 11:34:56;;;;;;;;;;;10.90;95.60;;;;;;5027349;28;19929;-71
2022/02/14 11:37:23;;;;;;;;;;;10.80;95.50;;;;;;5032425;28;19925;-71
2022/02/14 11:39:50;;;;;;;;;;;10.80;95.40;;;;;;5039185;28;19940;-71
2022/02/14 11:42:17;;;;;;;;;;;10.80;95.30;;;;;;5037200;28;19928;-71
2022/02/14 11:44:45;;;;;;;;;;;10.50;95.30;;;;;;5029618;28;20012;-70
2022/02/14 11:47:16;;;;;;;;;;;10.40;95.80;;;;;;5045813;28;19948;-71
2022/02/14 11:49:43;;;;;;;;;;;10.40;96.40;;;;;;5024954;28;19933;-73
2022/02/14 11:52:30;;;;;;;;;;;10.30;95.60;;;;;;5017828;28;19940;-71
2022/02/14 11:54:58;;;;;;;;;;;10.20;95.80;;;;;;5037864;28;19933;-71
2022/02/14 11:57:27;;;;;;;;;;;10.20;96.00;;;;;;5030097;28;19925;-71
2022/02/14 12:00:14;;;;;;;;;;;10.30;95.00;;;;;;5034009;28;19933;-71
2022/02/14 12:02:43;;;;;;;;;;;10.40;94.60;;;;;;5028401;28;19951;-70
2022/02/14 12:05:10;;;;;;;;;;;10.50;94.20;;;;;;5031536;28;19931;-68
2022/02/14 12:07:37;;;;;;;;;;;10.40;94.50;;;;;;5031469;28;20189;-67
2022/02/14 12:10:14;;;;;;;;;;;10.40;95.00;;;;;;5031439;28;20511;-71
2022/02/14 12:13:03;;;;;;;;;;;10.30;95.20;;;;;;5030372;28;20016;-73
2022/02/14 12:21:11;;;;;;;;;;;10.20;95.80;;;;;;5028200;28;20015;-71
2022/02/14 12:23:39;;;;;;;;;;;10.50;95.80;;;;;;5020363;28;19925;-71
2022/02/14 12:26:07;;;;;;;;;;;10.70;94.50;;;;;;5033859;28;19925;-70
2022/02/14 12:28:34;;;;;;;;;;;10.50;93.80;;;;;;5029560;28;19936;-70
2022/02/14 12:31:01;;;;;;;;;;;10.50;93.90;;;;;;5026930;28;20042;-71
2022/02/14 12:33:29;;;;;;;;;;;10.50;93.50;;;;;;5031241;28;19966;-72
2022/02/14 12:35:56;;;;;;;;;;;10.40;92.50;;;;;;5037700;28;19933;-71
2022/02/14 12:38:25;;;;;;;;;;;10.40;93.30;;;;;;5028602;28;20411;-71
2022/02/14 12:40:53;;;;;;;;;;;10.40;95.00;;;;;;5032392;28;19925;-71
2022/02/14 12:43:25;;;;;;;;;;;10.10;95.50;;;;;;5031101;28;19925;-71
2022/02/14 12:45:53;;;;;;;;;;;10.20;96.40;;;;;;5025672;28;19929;-71
2022/02/14 12:48:31;;;;;;;;;;;10.10;96.50;;;;;;5027241;28;19925;-70
2022/02/14 12:50:58;;;;;;;;;;;10.00;96.00;;;;;;5029190;28;19963;-71
2022/02/14 12:53:25;;;;;;;;;;;10.00;97.00;;;;;;5022327;28;20394;-71
2022/02/14 12:55:57;;;;;;;;;;;9.90;97.30;;;;;;5039873;28;20350;-71
2022/02/14 12:58:24;;;;;;;;;;;9.70;97.00;;;;;;5034023;28;20434;-71
2022/02/14 13:00:51;;;;;;;;;;;9.70;97.80;;;;;;5026999;28;19978;-71
2022/02/14 13:03:18;;;;;;;;;;;9.80;98.30;;;;;;5027665;28;19929;-71
2022/02/14 13:05:50;;;;;;;;;;;9.90;98.40;;;;;;5037345;28;19931;-70
2022/02/14 13:08:18;;;;;;;;;;;9.90;98.10;;;;;;5030613;28;19929;-72
2022/02/14 13:10:46;;;;;;;;;;;10.00;97.10;;;;;;5029771;28;19929;-72
2022/02/14 13:13:28;;;;;;;;;;;10.10;97.40;;;;;;5026842;28;19936;-71
2022/02/14 13:15:55;;;;;;;;;;;10.00;95.20;;;;;;5043983;28;20023;-70
2022/02/14 13:18:22;;;;;;;;;;;9.90;95.00;;;;;;5034408;28;19925;-70
2022/02/14 13:20:57;;;;;;;;;;;9.80;96.10;;;;;;5039400;28;20004;-69
2022/02/14 13:23:24;;;;;;;;;;;9.70;96.80;;;;;;5026528;28;20021;-70
2022/02/14 13:25:51;;;;;;;;;;;9.90;96.80;;;;;;5025870;28;19931;-70
2022/02/14 13:28:18;;;;;;;;;;;9.90;96.40;;;;;;5026746;28;19926;-71
2022/02/14 13:30:45;;;;;;;;;;;9.70;96.30;;;;;;5028181;28;19925;-71
2022/02/14 13:33:18;;;;;;;;;;;9.60;96.30;;;;;;5021167;28;20018;-71
2022/02/14 13:35:45;;;;;;;;;;;9.60;96.50;;;;;;5025490;28;20024;-70
2022/02/14 13:38:13;;;;;;;;;;;9.60;96.60;;;;;;5025179;28;19925;-72
2022/02/14 13:40:41;;;;;;;;;;;9.80;96.60;;;;;;5025246;28;20335;-70
2022/02/14 13:43:09;;;;;;;;;;;9.70;96.40;;;;;;5026857;28;20388;-70
2022/02/14 13:45:43;;;;;;;;;;;9.70;96.10;;;;;;5029186;28;19978;-70
2022/02/14 13:48:13;;;;;;;;;;;9.70;96.70;;;;;;5023536;28;19925;-70
2022/02/14 13:50:40;;;;;;;;;;;9.70;96.60;;;;;;5033843;28;20024;-70
2022/02/14 13:53:07;;;;;;;;;;;9.80;96.30;;;;;;5023661;28;20048;-70
2022/02/14 13:55:36;;;;;;;;;;;10.00;95.70;;;;;;5024748;28;19925;-70
2022/02/14 13:58:03;;;;;;;;;;;10.20;95.60;;;;;;5028395;28;19940;-70
2022/02/14 14:00:34;;;;;;;;;;;10.40;95.10;;;;;;5025071;28;20459;-71
2022/02/14 14:03:01;;;;;;;;;;;10.50;94.90;;;;;;5034333;28;20299;-71
2022/02/14 14:05:35;;;;;;;;;;;10.40;94.50;;;;;;5029780;28;20034;-72
2022/02/14 14:08:01;;;;;;;;;;;10.20;94.70;;;;;;5032859;28;19932;-73
2022/02/14 14:10:42;;;;;;;;;;;10.10;95.00;;;;;;5025690;28;19933;-72
2022/02/14 14:13:10;;;;;;;;;;;10.20;95.20;;;;;;5031942;28;19967;-71
2022/02/14 14:15:37;;;;;;;;;;;10.40;95.10;;;;;;5024756;28;19995;-73
2022/02/14 14:18:04;;;;;;;;;;;10.30;94.80;;;;;;5027995;28;19926;-72
2022/02/14 14:20:30;;;;;;;;;;;10.20;95.00;;;;;;5028756;28;19925;-72
2022/02/14 14:22:57;;;;;;;;;;;10.20;95.60;;;;;;5029165;28;19925;-74
2022/02/14 14:25:24;;;;;;;;;;;10.20;95.50;;;;;;5027128;28;19925;-70
2022/02/14 14:27:53;;;;;;;;;;;10.60;95.30;;;;;;5030730;28;19948;-71
2022/02/14 14:30:19;;;;;;;;;;;10.90;94.10;;;;;;5031326;28;19932;-72
2022/02/14 14:32:46;;;;;;;;;;;11.00;92.30;;;;;;5030297;28;19991;-71